createdAt,value
2019-05-29T00:00:31.113Z,6.27
2019-05-29T00:02:59.671Z,10.33
2019-05-29T00:05:28.125Z,6.83
2019-05-29T00:07:56.695Z,8.47
2019-05-29T00:10:25.188Z,8.23
2019-05-29T00:12:53.888Z,10.13
2019-05-29T00:15:22.399Z,6.17
2019-05-29T00:17:50.930Z,7.57
2019-05-29T00:20:19.466Z,8.67
2019-05-29T00:22:47.956Z,9.00
2019-05-29T00:25:16.837Z,7.20
2019-05-29T00:27:45.339Z,8.00
2019-05-29T00:30:15.002Z,7.60
2019-05-29T00:32:43.766Z,5.77
2019-05-29T00:35:12.366Z,8.33
2019-05-29T00:37:41.032Z,9.33
2019-05-29T00:40:10.922Z,10.17
2019-05-29T00:42:39.708Z,9.10
2019-05-29T00:45:11.409Z,7.90
2019-05-29T00:47:40.390Z,6.90
2019-05-29T00:50:09.933Z,8.10
2019-05-29T00:52:38.666Z,7.77
2019-05-29T00:55:08.734Z,6.90
2019-05-29T00:57:37.900Z,6.57
2019-05-29T01:00:11.088Z,6.00
2019-05-29T01:02:39.945Z,7.20
2019-05-29T01:05:09.816Z,7.20
2019-05-29T01:07:38.486Z,7.13
2019-05-29T01:10:08.530Z,7.73
2019-05-29T01:12:37.065Z,8.40
2019-05-29T01:15:07.675Z,9.40
2019-05-29T01:17:36.306Z,4.83
2019-05-29T01:20:06.891Z,7.83
2019-05-29T01:22:35.354Z,5.73
2019-05-29T01:25:06.665Z,5.87
2019-05-29T01:27:35.153Z,5.87
2019-05-29T01:30:06.866Z,9.50
2019-05-29T01:32:35.328Z,5.13
2019-05-29T01:35:08.194Z,7.67
2019-05-29T01:37:36.700Z,7.47
2019-05-29T01:40:19.144Z,5.93
2019-05-29T01:42:36.965Z,5.73
2019-05-29T01:45:08.578Z,4.80
2019-05-29T01:47:37.489Z,6.83
2019-05-29T01:50:07.475Z,12.30
2019-05-29T01:52:36.029Z,7.07
2019-05-29T01:55:06.546Z,5.23
2019-05-29T01:57:35.085Z,4.90
2019-05-29T02:00:09.534Z,4.40
2019-05-29T02:02:38.103Z,7.77
2019-05-29T02:05:07.469Z,6.37
2019-05-29T02:07:35.933Z,9.33
2019-05-29T02:10:07.642Z,7.60
2019-05-29T02:12:36.166Z,7.67
2019-05-29T02:15:21.123Z,10.57
2019-05-29T02:17:37.420Z,7.60
2019-05-29T02:20:07.870Z,7.43
2019-05-29T02:22:36.461Z,6.77
2019-05-29T02:25:06.767Z,7.60
2019-05-29T02:27:35.226Z,6.93
2019-05-29T02:30:05.531Z,7.07
2019-05-29T02:32:34.003Z,6.30
2019-05-29T02:35:02.472Z,7.00
2019-05-29T02:37:30.975Z,5.00
2019-05-29T02:39:59.528Z,7.73
2019-05-29T02:42:29.144Z,7.53
2019-05-29T02:44:58.720Z,5.70
2019-05-29T02:47:28.089Z,5.93
2019-05-29T02:49:57.385Z,8.07
2019-05-29T02:52:26.392Z,5.60
2019-05-29T02:54:55.006Z,7.70
2019-05-29T02:57:24.606Z,7.70
2019-05-29T02:59:53.646Z,5.20
2019-05-29T03:02:23.577Z,6.70
2019-05-29T03:04:52.205Z,8.03
2019-05-29T03:07:22.241Z,5.63
2019-05-29T03:09:51.148Z,7.53
2019-05-29T03:12:19.694Z,4.63
2019-05-29T03:14:48.177Z,6.43
2019-05-29T03:17:16.727Z,7.15
2019-05-29T03:19:45.198Z,5.60
2019-05-29T03:22:13.659Z,5.70
2019-05-29T03:24:42.125Z,7.63
2019-05-29T03:27:31.847Z,4.70
2019-05-29T03:30:00.218Z,5.10
2019-05-29T03:32:34.521Z,8.57
2019-05-29T03:34:59.012Z,5.00
2019-05-29T03:37:28.191Z,6.97
2019-05-29T03:39:56.866Z,8.30
2019-05-29T03:42:26.446Z,5.70
2019-05-29T03:44:55.192Z,6.50
2019-05-29T03:47:23.836Z,4.70
2019-05-29T03:49:52.324Z,5.87
2019-05-29T03:52:20.927Z,5.97
2019-05-29T03:54:49.386Z,6.10
2019-05-29T03:57:17.996Z,10.37
2019-05-29T03:59:46.577Z,4.90
2019-05-29T04:02:15.093Z,4.60
2019-05-29T04:04:43.569Z,9.80
2019-05-29T04:07:12.278Z,6.30
2019-05-29T04:09:40.837Z,6.47
2019-05-29T04:12:09.306Z,5.97
2019-05-29T04:14:39.413Z,5.47
2019-05-29T04:17:08.743Z,5.77
2019-05-29T04:19:38.649Z,7.57
2019-05-29T04:22:10.438Z,11.20
2019-05-29T04:24:40.789Z,10.10
2019-05-29T04:27:13.747Z,7.43
2019-05-29T04:29:43.623Z,7.90
2019-05-29T04:32:12.250Z,5.70
2019-05-29T04:34:40.783Z,5.40
2019-05-29T04:37:09.294Z,5.73
2019-05-29T04:39:39.103Z,6.33
2019-05-29T04:42:07.825Z,5.07
2019-05-29T04:44:38.347Z,6.83
2019-05-29T04:47:10.948Z,8.30
2019-05-29T04:49:37.929Z,9.93
2019-05-29T04:52:07.076Z,9.03
2019-05-29T04:54:37.421Z,5.33
2019-05-29T04:57:05.827Z,5.67
2019-05-29T04:59:35.008Z,10.93
2019-05-29T05:02:03.548Z,7.30
2019-05-29T05:04:33.131Z,3.72
2019-05-29T05:07:02.115Z,6.75
2019-05-29T05:09:31.252Z,6.58
2019-05-29T05:12:00.137Z,8.43
2019-05-29T05:14:29.605Z,4.95
2019-05-29T05:17:00.389Z,5.35
2019-05-29T05:19:29.729Z,7.80
2019-05-29T05:21:58.353Z,4.60
2019-05-29T05:24:26.894Z,10.43
2019-05-29T05:26:55.925Z,5.87
2019-05-29T05:29:24.423Z,3.95
2019-05-29T05:31:52.911Z,6.55
2019-05-29T05:34:21.409Z,6.72
2019-05-29T05:36:49.872Z,7.65
2019-05-29T05:39:18.366Z,5.35
2019-05-29T05:41:46.833Z,4.72
2019-05-29T05:44:15.565Z,4.10
2019-05-29T05:46:44.056Z,4.28
2019-05-29T05:49:12.537Z,7.72
2019-05-29T05:51:44.205Z,8.38
2019-05-29T05:54:11.301Z,4.37
2019-05-29T05:56:39.790Z,5.25
2019-05-29T05:59:08.310Z,5.12
2019-05-29T06:01:37.920Z,7.37
2019-05-29T06:04:06.472Z,4.60
2019-05-29T06:06:36.129Z,5.03
2019-05-29T06:09:08.255Z,4.55
2019-05-29T06:11:36.791Z,4.08
2019-05-29T06:14:05.929Z,6.55
2019-05-29T06:16:34.530Z,4.75
2019-05-29T06:19:03.277Z,5.62
2019-05-29T06:21:32.544Z,4.53
2019-05-29T06:24:01.193Z,3.65
2019-05-29T06:26:29.742Z,7.72
2019-05-29T06:28:58.242Z,2.15
2019-05-29T06:31:27.463Z,3.33
2019-05-29T06:33:56.276Z,4.95
2019-05-29T06:36:24.960Z,4.92
2019-05-29T06:38:53.494Z,13.70
2019-05-29T06:41:22.314Z,4.00
2019-05-29T06:43:50.791Z,2.92
2019-05-29T06:46:19.407Z,4.67
2019-05-29T06:48:58.925Z,3.67
2019-05-29T06:51:18.170Z,2.50
2019-05-29T06:53:48.117Z,10.30
2019-05-29T06:56:17.512Z,4.35
2019-05-29T06:58:46.211Z,2.42
2019-05-29T07:01:14.762Z,4.43
2019-05-29T07:03:43.989Z,7.58
2019-05-29T07:06:12.893Z,3.77
2019-05-29T07:08:45.011Z,3.22
2019-05-29T07:11:11.566Z,4.92
2019-05-29T07:13:43.175Z,4.25
2019-05-29T07:16:10.497Z,3.75
2019-05-29T07:18:40.868Z,3.08
2019-05-29T07:21:09.636Z,2.27
2019-05-29T07:23:41.273Z,3.05
2019-05-29T07:26:09.884Z,4.72
2019-05-29T07:28:55.529Z,6.95
2019-05-29T07:31:08.754Z,1.92
2019-05-29T07:33:37.315Z,3.37
2019-05-29T07:36:05.854Z,3.33
2019-05-29T07:38:34.337Z,4.75
2019-05-29T07:41:02.915Z,4.77
2019-05-29T07:43:31.443Z,2.45
2019-05-29T07:45:59.922Z,5.65
2019-05-29T07:48:28.420Z,4.47
2019-05-29T07:51:06.721Z,4.47
2019-05-29T07:53:27.186Z,5.08
2019-05-29T07:55:55.652Z,2.92
2019-05-29T07:58:24.134Z,3.17
2019-05-29T08:01:11.606Z,6.22
2019-05-29T08:03:22.829Z,3.70
2019-05-29T08:05:53.288Z,11.28
2019-05-29T08:08:21.581Z,4.10
2019-05-29T08:10:50.078Z,5.75
2019-05-29T08:13:18.558Z,6.28
2019-05-29T08:15:57.602Z,4.85
2019-05-29T08:18:17.554Z,5.37
2019-05-29T08:20:46.114Z,3.72
2019-05-29T08:23:14.650Z,3.77
2019-05-29T08:25:43.480Z,2.17
2019-05-29T08:28:12.150Z,9.10
2019-05-29T08:30:41.171Z,1.87
2019-05-29T08:33:10.853Z,2.83
2019-05-29T08:35:41.343Z,5.67
2019-05-29T08:38:09.595Z,5.53
2019-05-29T08:40:38.120Z,4.97
2019-05-29T08:43:06.640Z,6.80
2019-05-29T08:45:35.139Z,2.92
2019-05-29T08:48:04.781Z,5.53
2019-05-29T08:50:33.681Z,2.62
2019-05-29T08:53:02.637Z,3.47
2019-05-29T08:55:31.302Z,4.45
2019-05-29T08:57:59.825Z,3.35
2019-05-29T09:00:28.542Z,5.28
2019-05-29T09:02:57.398Z,4.50
2019-05-29T09:05:25.886Z,2.85
2019-05-29T09:07:54.517Z,6.45
2019-05-29T09:10:23.230Z,3.00
2019-05-29T09:13:03.962Z,3.17
2019-05-29T09:15:22.678Z,4.30
2019-05-29T09:17:51.159Z,3.62
2019-05-29T09:20:32.098Z,5.67
2019-05-29T09:22:49.955Z,2.72
2019-05-29T09:25:21.199Z,6.95
2019-05-29T09:27:52.036Z,3.17
2019-05-29T09:30:28.091Z,2.70
2019-05-29T09:32:57.036Z,4.45
2019-05-29T09:35:28.525Z,2.80
2019-05-29T09:37:57.212Z,3.75
2019-05-29T09:40:25.770Z,6.12
2019-05-29T09:42:54.243Z,4.97
2019-05-29T09:45:23.482Z,5.17
2019-05-29T09:47:52.143Z,5.62
2019-05-29T09:50:23.430Z,5.70
2019-05-29T09:52:51.365Z,3.95
2019-05-29T09:55:19.980Z,3.57
2019-05-29T09:57:48.509Z,6.40
2019-05-29T10:00:18.082Z,3.92
2019-05-29T10:02:46.591Z,5.15
2019-05-29T10:05:15.831Z,3.95
2019-05-29T10:07:44.323Z,5.35
2019-05-29T10:10:14.730Z,4.42
2019-05-29T10:12:43.211Z,4.95
2019-05-29T10:15:12.813Z,10.90
2019-05-29T10:17:41.354Z,8.50
2019-05-29T10:20:11.257Z,5.90
2019-05-29T10:22:39.747Z,3.60
2019-05-29T10:25:10.197Z,5.85
2019-05-29T10:27:38.746Z,5.47
2019-05-29T10:30:08.864Z,5.25
2019-05-29T10:32:37.376Z,6.70
2019-05-29T10:35:06.483Z,6.53
2019-05-29T10:37:34.983Z,6.33
2019-05-29T10:40:09.090Z,7.03
2019-05-29T10:42:37.658Z,6.03
2019-05-29T10:45:08.302Z,6.95
2019-05-29T10:47:36.948Z,3.87
2019-05-29T10:50:10.164Z,4.50
2019-05-29T10:52:39.026Z,5.40
2019-05-29T10:55:08.915Z,6.25
2019-05-29T10:57:37.443Z,5.35
2019-05-29T11:00:09.003Z,5.25
2019-05-29T11:02:37.555Z,7.15
2019-05-29T11:05:06.643Z,5.92
2019-05-29T11:07:35.268Z,5.17
2019-05-29T11:10:05.902Z,8.90
2019-05-29T11:12:34.373Z,5.20
2019-05-29T11:15:19.870Z,4.00
2019-05-29T11:17:34.543Z,4.10
2019-05-29T11:20:04.723Z,8.48
2019-05-29T11:22:33.217Z,6.42
2019-05-29T11:25:21.177Z,7.92
2019-05-29T11:27:32.215Z,6.28
2019-05-29T11:30:00.721Z,6.58
2019-05-29T11:32:29.279Z,6.83
2019-05-29T11:34:57.846Z,5.15
2019-05-29T11:37:26.388Z,4.40
2019-05-29T11:39:54.968Z,4.53
2019-05-29T11:42:27.255Z,6.37
2019-05-29T11:44:55.119Z,4.70
2019-05-29T11:47:23.945Z,4.58
2019-05-29T11:49:53.187Z,4.12
2019-05-29T11:52:24.995Z,6.47
2019-05-29T11:54:56.013Z,8.95
2019-05-29T11:57:22.311Z,5.15
2019-05-29T11:59:51.819Z,4.55
2019-05-29T12:02:20.641Z,9.65
2019-05-29T12:04:51.041Z,6.10
2019-05-29T12:07:19.790Z,8.18
2019-05-29T12:09:48.275Z,6.25
2019-05-29T12:12:17.179Z,5.28
2019-05-29T12:15:00.342Z,7.10
2019-05-29T12:17:15.890Z,8.30
2019-05-29T12:19:44.579Z,3.47
2019-05-29T12:22:13.104Z,5.50
2019-05-29T12:24:41.582Z,4.80
2019-05-29T12:27:10.077Z,3.17
2019-05-29T12:29:38.570Z,3.72
2019-05-29T12:32:09.704Z,5.92
2019-05-29T12:34:45.176Z,13.78
2019-05-29T12:37:07.618Z,9.05
2019-05-29T12:39:36.417Z,6.55
2019-05-29T12:42:05.236Z,4.70
2019-05-29T12:44:33.722Z,10.18
2019-05-29T12:47:02.608Z,7.97
2019-05-29T12:49:32.505Z,4.90
2019-05-29T12:52:02.075Z,5.83
2019-05-29T12:54:31.024Z,10.63
2019-05-29T12:56:59.966Z,5.67
2019-05-29T12:59:28.671Z,5.75
2019-05-29T13:01:58.413Z,4.92
2019-05-29T13:04:27.322Z,2.92
2019-05-29T13:06:56.231Z,5.90
2019-05-29T13:09:25.284Z,6.08
2019-05-29T13:11:54.379Z,7.00
2019-05-29T13:14:23.293Z,4.87
2019-05-29T13:16:51.804Z,6.63
2019-05-29T13:19:23.056Z,5.78
2019-05-29T13:21:51.551Z,3.60
2019-05-29T13:24:20.102Z,5.10
2019-05-29T13:26:52.449Z,5.05
2019-05-29T13:29:21.279Z,5.65
2019-05-29T13:31:55.707Z,5.30
2019-05-29T13:34:22.795Z,5.20
2019-05-29T13:36:51.480Z,7.85
2019-05-29T13:39:20.286Z,6.53
2019-05-29T13:41:48.993Z,5.17
2019-05-29T13:44:17.704Z,6.08
2019-05-29T13:46:46.209Z,7.15
2019-05-29T13:49:14.819Z,4.20
2019-05-29T13:51:43.715Z,6.05
2019-05-29T13:54:17.067Z,5.72
2019-05-29T13:56:42.489Z,3.77
2019-05-29T13:59:11.094Z,7.53
2019-05-29T14:01:39.607Z,3.65
2019-05-29T14:04:08.678Z,4.78
2019-05-29T14:06:37.605Z,4.05
2019-05-29T14:09:09.831Z,3.42
2019-05-29T14:11:38.418Z,3.02
2019-05-29T14:14:09.189Z,4.65
2019-05-29T14:16:37.241Z,3.58
2019-05-29T14:19:06.910Z,4.28
2019-05-29T14:21:35.907Z,5.72
2019-05-29T14:24:23.451Z,2.85
2019-05-29T14:26:35.459Z,3.52
2019-05-29T14:29:05.980Z,4.62
2019-05-29T14:31:34.988Z,4.00
2019-05-29T14:34:03.529Z,3.62
2019-05-29T14:36:32.018Z,4.20
2019-05-29T14:39:01.595Z,3.20
2019-05-29T14:41:30.657Z,3.37
2019-05-29T14:43:59.218Z,3.05
2019-05-29T14:46:27.714Z,3.70
2019-05-29T14:48:56.376Z,6.87
2019-05-29T14:51:25.018Z,4.00
2019-05-29T14:53:53.770Z,4.67
2019-05-29T14:56:22.520Z,4.33
2019-05-29T14:58:51.610Z,4.83
2019-05-29T15:01:20.210Z,6.53
2019-05-29T15:03:49.212Z,5.75
2019-05-29T15:06:18.348Z,5.37
2019-05-29T15:08:46.953Z,5.20
2019-05-29T15:11:15.446Z,7.45
2019-05-29T15:13:43.923Z,8.48
2019-05-29T15:16:12.855Z,5.30
2019-05-29T15:18:44.978Z,4.05
2019-05-29T15:21:13.459Z,8.73
2019-05-29T15:23:41.964Z,7.00
2019-05-29T15:26:11.618Z,6.27
2019-05-29T15:28:40.568Z,5.62
2019-05-29T15:31:10.330Z,6.28
2019-05-29T15:33:42.295Z,5.60
2019-05-29T15:36:10.839Z,4.62
2019-05-29T15:38:39.363Z,9.55
2019-05-29T15:41:08.689Z,10.45
2019-05-29T15:43:37.637Z,5.75
2019-05-29T15:46:09.568Z,5.28
2019-05-29T15:48:36.306Z,6.67
2019-05-29T15:51:04.790Z,5.47
2019-05-29T15:53:33.578Z,5.67
2019-05-29T15:56:16.815Z,5.78
2019-05-29T15:58:32.367Z,7.58
2019-05-29T16:01:00.904Z,5.53
2019-05-29T16:03:29.556Z,7.35
2019-05-29T16:05:58.134Z,6.28
2019-05-29T16:08:26.672Z,6.10
2019-05-29T16:10:55.226Z,4.22
2019-05-29T16:13:23.717Z,7.70
2019-05-29T16:15:52.202Z,5.67
2019-05-29T16:18:28.122Z,4.55
2019-05-29T16:20:51.010Z,5.22
2019-05-29T16:23:32.287Z,5.90
2019-05-29T16:25:49.763Z,4.62
2019-05-29T16:28:19.359Z,11.18
2019-05-29T16:30:48.211Z,4.47
2019-05-29T16:33:17.217Z,5.93
2019-05-29T16:35:46.158Z,5.12
2019-05-29T16:38:15.993Z,7.60
2019-05-29T16:40:44.770Z,7.08
2019-05-29T16:43:15.986Z,7.83
2019-05-29T16:45:51.602Z,6.53
2019-05-29T16:48:25.113Z,5.12
2019-05-29T16:51:02.339Z,4.92
2019-05-29T16:53:37.446Z,8.58
2019-05-29T16:56:09.130Z,5.03
2019-05-29T16:58:40.864Z,6.72
2019-05-29T17:01:11.707Z,6.37
2019-05-29T17:03:45.055Z,7.35
2019-05-29T17:06:20.015Z,5.08
2019-05-29T17:08:48.827Z,8.13
2019-05-29T17:11:18.438Z,7.05
2019-05-29T17:13:50.437Z,5.35
2019-05-29T17:16:23.234Z,5.80
2019-05-29T17:19:00.987Z,5.70
2019-05-29T17:21:31.089Z,7.05
2019-05-29T17:23:59.628Z,6.15
2019-05-29T17:26:31.294Z,11.00
2019-05-29T17:29:06.254Z,9.50
2019-05-29T17:31:34.715Z,7.50
2019-05-29T17:34:03.186Z,11.83
2019-05-29T17:36:31.680Z,6.95
2019-05-29T17:39:00.217Z,9.15
2019-05-29T17:41:28.819Z,11.40
2019-05-29T17:43:57.389Z,10.70
2019-05-29T17:46:26.012Z,8.75
2019-05-29T17:48:54.910Z,10.90
2019-05-29T17:51:23.854Z,9.85
2019-05-29T17:53:52.534Z,9.25
2019-05-29T17:56:31.992Z,9.50
2019-05-29T17:58:51.304Z,10.18
2019-05-29T18:01:20.000Z,9.80
2019-05-29T18:03:49.591Z,8.45
2019-05-29T18:06:18.356Z,7.67
2019-05-29T18:08:47.218Z,12.73
2019-05-29T18:11:16.814Z,13.50
2019-05-29T18:13:45.477Z,10.43
2019-05-29T18:16:14.044Z,12.70
2019-05-29T18:18:42.506Z,9.15
2019-05-29T18:21:11.005Z,9.75
2019-05-29T18:23:39.537Z,8.45
2019-05-29T18:26:08.004Z,9.43
2019-05-29T18:28:36.490Z,9.88
2019-05-29T18:31:05.042Z,10.80
2019-05-29T18:33:33.512Z,9.18
2019-05-29T18:36:02.370Z,14.23
2019-05-29T18:38:30.899Z,12.60
2019-05-29T18:40:59.391Z,7.83
2019-05-29T18:43:28.726Z,10.93
2019-05-29T18:45:57.396Z,11.30
2019-05-29T18:48:25.862Z,9.68
2019-05-29T18:50:54.348Z,9.93
2019-05-29T18:53:23.227Z,11.28
2019-05-29T18:55:51.789Z,8.53
2019-05-29T18:58:20.341Z,9.60
2019-05-29T19:00:49.528Z,10.32
2019-05-29T19:03:18.022Z,7.67
2019-05-29T19:05:46.748Z,10.40
2019-05-29T19:08:34.688Z,10.68
2019-05-29T19:11:03.153Z,7.85
2019-05-29T19:13:32.055Z,11.00
2019-05-29T19:16:01.012Z,8.28
2019-05-29T19:18:30.198Z,9.78
2019-05-29T19:20:59.038Z,7.95
2019-05-29T19:23:28.773Z,8.45
2019-05-29T19:25:57.666Z,8.35
2019-05-29T19:28:26.552Z,11.12
2019-05-29T19:30:55.089Z,7.37
2019-05-29T19:33:23.837Z,6.83
2019-05-29T19:35:52.413Z,8.85
2019-05-29T19:38:20.969Z,8.60
2019-05-29T19:40:49.443Z,14.45
2019-05-29T19:43:17.999Z,8.35
2019-05-29T19:45:46.478Z,10.35
2019-05-29T19:48:14.951Z,9.13
2019-05-29T19:50:43.430Z,8.83
2019-05-29T19:53:11.963Z,7.87
2019-05-29T19:55:40.454Z,11.00
2019-05-29T19:58:08.904Z,8.63
2019-05-29T20:00:37.389Z,11.70
2019-05-29T20:03:06.054Z,17.05
2019-05-29T20:05:34.952Z,11.33
2019-05-29T20:08:03.766Z,11.93
2019-05-29T20:10:33.332Z,13.28
2019-05-29T20:13:02.127Z,12.60
2019-05-29T20:15:31.939Z,11.22
2019-05-29T20:18:02.062Z,13.70
2019-05-29T20:20:30.677Z,15.90
2019-05-29T20:22:59.243Z,10.48
2019-05-29T20:25:28.795Z,12.55
2019-05-29T20:28:05.928Z,14.58
2019-05-29T20:30:27.810Z,15.65
2019-05-29T20:32:56.284Z,14.60
2019-05-29T20:35:24.856Z,13.68
2019-05-29T20:37:53.492Z,11.95
2019-05-29T20:40:22.243Z,11.03
2019-05-29T20:42:50.750Z,13.50
2019-05-29T20:45:19.359Z,12.43
2019-05-29T20:47:47.860Z,13.95
2019-05-29T20:50:17.848Z,11.83
2019-05-29T20:52:46.400Z,12.63
2019-05-29T20:55:15.895Z,12.30
2019-05-29T20:57:44.440Z,12.20
2019-05-29T21:00:15.769Z,13.15
2019-05-29T21:02:44.257Z,14.65
2019-05-29T21:05:13.641Z,13.60
2019-05-29T21:07:42.982Z,16.45
2019-05-29T21:10:13.637Z,13.17
2019-05-29T21:12:46.143Z,14.18
2019-05-29T21:15:13.762Z,12.03
2019-05-29T21:17:42.283Z,13.20
2019-05-29T21:20:11.669Z,11.85
2019-05-29T21:22:40.615Z,12.63
2019-05-29T21:25:14.998Z,11.12
2019-05-29T21:27:43.953Z,13.03
2019-05-29T21:30:11.991Z,12.98
2019-05-29T21:32:41.804Z,12.37
2019-05-29T21:35:11.120Z,12.35
2019-05-29T21:37:40.364Z,9.70
2019-05-29T21:40:10.126Z,14.87
2019-05-29T21:42:38.626Z,9.45
2019-05-29T21:45:07.765Z,12.60
2019-05-29T21:47:37.181Z,10.20
2019-05-29T21:50:10.058Z,14.40
2019-05-29T21:52:39.434Z,13.18
2019-05-29T21:55:08.938Z,16.23
2019-05-29T21:57:37.852Z,20.45
2019-05-29T22:00:16.193Z,16.20
2019-05-29T22:02:46.309Z,12.13
2019-05-29T22:05:16.406Z,10.93
2019-05-29T22:07:44.937Z,12.15
2019-05-29T22:10:14.588Z,13.03
2019-05-29T22:12:43.077Z,11.35
2019-05-29T22:15:11.618Z,12.43
2019-05-29T22:17:40.450Z,10.32
2019-05-29T22:20:09.994Z,12.18
2019-05-29T22:22:39.006Z,10.38
2019-05-29T22:25:08.558Z,10.35
2019-05-29T22:27:37.891Z,20.57
2019-05-29T22:30:08.796Z,14.28
2019-05-29T22:32:37.473Z,8.80
2019-05-29T22:35:06.970Z,8.78
2019-05-29T22:37:35.459Z,10.45
2019-05-29T22:40:08.646Z,9.35
2019-05-29T22:42:37.233Z,12.13
2019-05-29T22:45:06.529Z,8.60
2019-05-29T22:47:35.019Z,10.45
2019-05-29T22:50:05.855Z,12.98
2019-05-29T22:52:34.342Z,12.80
2019-05-29T22:55:03.191Z,10.32
2019-05-29T22:57:31.834Z,11.48
2019-05-29T23:00:00.324Z,15.98
2019-05-29T23:02:28.873Z,11.65
2019-05-29T23:04:58.483Z,10.98
2019-05-29T23:07:27.206Z,11.38
2019-05-29T23:09:56.138Z,11.60
2019-05-29T23:12:24.964Z,11.00
2019-05-29T23:14:54.423Z,12.93
2019-05-29T23:17:23.263Z,15.23
2019-05-29T23:19:52.432Z,13.03
2019-05-29T23:22:24.343Z,15.43
2019-05-29T23:24:52.564Z,18.02
2019-05-29T23:27:21.419Z,19.05
2019-05-29T23:29:49.896Z,12.88
2019-05-29T23:32:18.348Z,15.08
2019-05-29T23:34:46.913Z,13.60
2019-05-29T23:37:15.444Z,16.37
2019-05-29T23:39:43.981Z,14.98
2019-05-29T23:42:12.475Z,15.05
2019-05-29T23:44:40.944Z,18.07
2019-05-29T23:47:09.439Z,14.18
2019-05-29T23:49:37.987Z,13.62
2019-05-29T23:52:06.533Z,12.90
2019-05-29T23:54:35.153Z,15.10
2019-05-29T23:57:05.054Z,15.28
2019-05-29T23:59:33.949Z,13.58
